Observation data for Haskell on 02/22/2019      Previous  Date  Next       Current Mesonet Observations  Soil Data  Daily Summary Page  Observations in Plain Language
KHA1 220600Z 09006KT 03/01 A2995 RMK A01 T00330006  RH  084%=      5-min Rain = 0
KHA1 220605Z 11006KT 03/01 A2995 RMK A01 T00320007  RH  085%=      5-min Rain = 0
KHA1 220610Z 11006KT 03/01 A2995 RMK A01 T00310006  RH  085%=      5-min Rain = 0
KHA1 220615Z 10006KT 03/01 A2995 RMK A01 T00300006  RH  085%=      5-min Rain = 0
KHA1 220620Z 10007KT 03/01 A2994 RMK A01 T00310008  RH  086%=      5-min Rain = 0
KHA1 220625Z 11007KT 03/01 A2994 RMK A01 T00330009  RH  085%=      5-min Rain = 0
KHA1 220630Z 11008KT 04/01 A2994 RMK A01 T00350011  RH  085%=      5-min Rain = 0
KHA1 220635Z 11008KT 04/01 A2994 RMK A01 T00390013  RH  085%=      5-min Rain = 0
KHA1 220640Z 11007KT 04/01 A2994 RMK A01 T00400014  RH  084%=      5-min Rain = 0
KHA1 220645Z 11007KT 04/02 A2994 RMK A01 T00420016  RH  085%=      5-min Rain = 0
KHA1 220650Z 12007KT 04/02 A2994 RMK A01 T00440018  RH  084%=      5-min Rain = 0
KHA1 220655Z 12008KT 05/02 A2993 RMK A01 T00460020  RH  084%=      5-min Rain = 0
KHA1 220700Z 12009KT 05/02 A2993 RMK A01 T00480021  RH  084%=      5-min Rain = 0
KHA1 220705Z 12008KT 05/02 A2993 RMK A01 T00500022  RH  083%=      5-min Rain = 0
KHA1 220710Z 11008KT 05/02 A2993 RMK A01 T00520023  RH  083%=      5-min Rain = 0
KHA1 220715Z 12008KT 05/02 A2993 RMK A01 T00530023  RH  082%=      5-min Rain = 0
KHA1 220720Z 12008KT 06/02 A2993 RMK A01 T00550024  RH  082%=      5-min Rain = 0
KHA1 220725Z 12008KT 06/03 A2992 RMK A01 T00560025  RH  082%=      5-min Rain = 0
KHA1 220730Z 11007G12KT 06/03 A2992 RMK A01 T00570025  RH  082%=      5-min Rain = 0
KHA1 220735Z 11008KT 06/03 A2992 RMK A01 T00580026  RH  081%=      5-min Rain = 0
KHA1 220740Z 11008KT 06/03 A2991 RMK A01 T00590026  RH  081%=      5-min Rain = 0
KHA1 220745Z 11007G14KT 06/03 A2991 RMK A01 T00590027  RH  081%=      5-min Rain = 0
KHA1 220750Z 11009KT 06/03 A2991 RMK A01 T00600029  RH  082%=      5-min Rain = 0
KHA1 220755Z 12010G16KT 06/03 A2991 RMK A01 T00590029  RH  083%=      5-min Rain = 0
KHA1 220800Z 11009G15KT 06/03 A2991 RMK A01 T00580030  RH  084%=      5-min Rain = 0
KHA1 220805Z 12009KT 06/03 A2991 RMK A01 T00570030  RH  084%=      5-min Rain = 0
KHA1 220810Z 12009G14KT 06/03 A2991 RMK A01 T00570031  RH  085%=      5-min Rain = 0
KHA1 220815Z 11008KT 06/03 A2991 RMK A01 T00570031  RH  085%=      5-min Rain = 0
KHA1 220820Z 11009KT 06/03 A2991 RMK A01 T00580032  RH  085%=      5-min Rain = 0
KHA1 220825Z 11008KT 06/03 A2991 RMK A01 T00580033  RH  085%=      5-min Rain = 0
KHA1 220830Z 11007KT 06/03 A2991 RMK A01 T00580033  RH  085%=      5-min Rain = 0
KHA1 220835Z 10007G12KT 06/03 A2991 RMK A01 T00590033  RH  085%=      5-min Rain = 0
KHA1 220840Z 11007KT 06/03 A2991 RMK A01 T00600034  RH  085%=      5-min Rain = 0
KHA1 220845Z 11007KT 06/03 A2991 RMK A01 T00600033  RH  085%=      5-min Rain = 0
KHA1 220850Z 11007KT 06/03 A2991 RMK A01 T00600033  RH  085%=      5-min Rain = 0
KHA1 220855Z 11007G12KT 06/03 A2991 RMK A01 T00600034  RH  085%=      5-min Rain = 0
KHA1 220900Z 11008KT 06/03 A2991 RMK A01 T00600034  RH  085%=      5-min Rain = 0
KHA1 220905Z 11007KT 06/04 A2991 RMK A01 T00600035  RH  085%=      5-min Rain = 0
KHA1 220910Z 10008G13KT 06/04 A2991 RMK A01 T00600036  RH  086%=      5-min Rain = 0
KHA1 220915Z 11010KT 06/04 A2991 RMK A01 T00600036  RH  086%=      5-min Rain = 0
KHA1 220920Z 10008KT 06/04 A2991 RMK A01 T00600037  RH  087%=      5-min Rain = 0
KHA1 220925Z 10009KT 06/04 A2991 RMK A01 T00600037  RH  087%=      5-min Rain = 0
KHA1 220930Z 10008KT 06/04 A299 RMK A01 T00600038  RH  088%=      5-min Rain = 0
KHA1 220935Z 10006KT 06/04 A299 RMK A01 T00590039  RH  089%=      5-min Rain = 0
KHA1 220940Z 09007KT 06/04 A299 RMK A01 T00580040  RH  090%=      5-min Rain = 0
KHA1 220945Z 10006KT 06/04 A2991 RMK A01 T00570040  RH  091%=      5-min Rain = 0
KHA1 220950Z 10005KT 06/04 A2991 RMK A01 T00560041  RH  092%=      5-min Rain = 0
KHA1 220955Z 10005KT 06/04 A2991 RMK A01 T00560042  RH  093%=      5-min Rain = 0
KHA1 221000Z 10005KT 06/04 A2991 RMK A01 T00560043  RH  093%=      5-min Rain = 0
KHA1 221005Z 10005KT 06/04 A2992 RMK A01 T00560044  RH  094%=      5-min Rain = 0
KHA1 221010Z 09005KT 06/04 A2992 RMK A01 T00560044  RH  094%=      5-min Rain = 0
KHA1 221015Z 10006KT 06/04 A2992 RMK A01 T00560044  RH  094%=      5-min Rain = 0
KHA1 221020Z 10007KT 06/04 A2992 RMK A01 T00560044  RH  094%=      5-min Rain = 0
KHA1 221025Z 10006KT 06/04 A2992 RMK A01 T00560044  RH  094%=      5-min Rain = 0
KHA1 221030Z 10006KT 06/05 A2992 RMK A01 T00560045  RH  095%=      5-min Rain = 0
KHA1 221035Z 10006KT 06/05 A2993 RMK A01 T00560045  RH  095%=      5-min Rain = 0
KHA1 221040Z 11006KT 06/05 A2993 RMK A01 T00560046  RH  095%=      5-min Rain = 0
KHA1 221045Z 11005KT 06/05 A2994 RMK A01 T00560047  RH  096%=      5-min Rain = 0
KHA1 221050Z 10005KT 06/05 A2994 RMK A01 T00560047  RH  096%=      5-min Rain = 0
KHA1 221055Z 11005KT 06/05 A2995 RMK A01 T00560047  RH  096%=      5-min Rain = 0
KHA1 221100Z 11005KT 06/05 A2995 RMK A01 T00560047  RH  096%=      5-min Rain = 0
KHA1 221105Z 09004KT 06/05 A2994 RMK A01 T00550046  RH  096%=      5-min Rain = 0
KHA1 221110Z 09004KT 06/05 A2994 RMK A01 T00560047  RH  096%=      5-min Rain = 0
KHA1 221115Z 10005KT 06/05 A2994 RMK A01 T00560047  RH  096%=      5-min Rain = 0
KHA1 221120Z 09004KT 06/05 A2994 RMK A01 T00560047  RH  096%=      5-min Rain = 0
KHA1 221125Z 10003KT 06/05 A2995 RMK A01 T00560047  RH  096%=      5-min Rain = 0
KHA1 221130Z 08004KT 06/05 A2995 RMK A01 T00560047  RH  096%=      5-min Rain = 0
KHA1 221135Z 08004KT 06/05 A2995 RMK A01 T00560047  RH  096%=      5-min Rain = 0
KHA1 221140Z 09003KT 06/05 A2996 RMK A01 T00560047  RH  096%=      5-min Rain = 0
KHA1 221145Z 08004KT 06/05 A2995 RMK A01 T00560048  RH  096%=      5-min Rain = 0
KHA1 221150Z 08004KT 06/05 A2996 RMK A01 T00560048  RH  097%=      5-min Rain = 0
KHA1 221155Z 09003KT 06/05 A2996 RMK A01 T00560048  RH  097%=      5-min Rain = 0
KHA1 221200Z 08003KT 06/05 A2996 RMK A01 T00560048  RH  097%=      5-min Rain = 0
KHA1 221205Z 08004KT 06/05 A2997 RMK A01 T00550047  RH  097%=      5-min Rain = 0
KHA1 221210Z 07003KT 05/05 A2997 RMK A01 T00540047  RH  097%=      5-min Rain = 0
KHA1 221215Z 06004KT 05/05 A2997 RMK A01 T00540047  RH  097%=      5-min Rain = 0
KHA1 221220Z 06003KT 05/05 A2997 RMK A01 T00540047  RH  097%=      5-min Rain = 0
KHA1 221225Z 06003KT 05/05 A2998 RMK A01 T00540047  RH  097%=      5-min Rain = 0
KHA1 221230Z 07004KT 05/05 A2998 RMK A01 T00540047  RH  098%=      5-min Rain = 0
KHA1 221235Z 07003KT 05/05 A2998 RMK A01 T00540047  RH  098%=      5-min Rain = 0
KHA1 221240Z 07004KT 05/05 A2998 RMK A01 T00540047  RH  098%=      5-min Rain = 0
KHA1 221245Z 06004KT 05/05 A2998 RMK A01 T00540047  RH  098%=      5-min Rain = 0
KHA1 221250Z 05004KT 05/05 A2998 RMK A01 T00540048  RH  098%=      5-min Rain = 0
KHA1 221255Z 04005KT 05/05 A2998 RMK A01 T00540048  RH  098%=      5-min Rain = 0
KHA1 221300Z 04005KT 05/05 A2998 RMK A01 T00540048  RH  098%=      5-min Rain = 0
KHA1 221305Z 04006KT 05/05 A2998 RMK A01 T00540048  RH  098%=      5-min Rain = 0
KHA1 221310Z 04007KT 05/05 A2997 RMK A01 T00530047  RH  098%=      5-min Rain = 0
KHA1 221315Z 04008KT 05/05 A2997 RMK A01 T00530047  RH  098%=      5-min Rain = 0
KHA1 221320Z 05008KT 05/05 A2997 RMK A01 T00530047  RH  098%=      5-min Rain = 0
KHA1 221325Z 05006KT 05/05 A2998 RMK A01 T00530047  RH  098%=      5-min Rain = 0
KHA1 221330Z 06005KT 05/05 A2998 RMK A01 T00530048  RH  098%=      5-min Rain = 0
KHA1 221335Z 06005KT 05/05 A2998 RMK A01 T00540048  RH  098%=      5-min Rain = 0
KHA1 221340Z 06006KT 05/05 A2998 RMK A01 T00540048  RH  098%=      5-min Rain = 0
KHA1 221345Z 06007KT 05/05 A2998 RMK A01 T00540048  RH  098%=      5-min Rain = 0
KHA1 221350Z 06005KT 05/05 A2998 RMK A01 T00540049  RH  098%=      5-min Rain = 0
KHA1 221355Z 07006KT 05/05 A2998 RMK A01 T00540049  RH  098%=      5-min Rain = 0
KHA1 221400Z 07006KT 05/05 A2998 RMK A01 T00540049  RH  098%=      5-min Rain = 0
KHA1 221405Z 06008KT 05/05 A2998 RMK A01 T00540049  RH  098%=      5-min Rain = 0
KHA1 221410Z 06007KT 06/05 A2998 RMK A01 T00550049  RH  098%=      5-min Rain = 0
KHA1 221415Z 06006KT 06/05 A2998 RMK A01 T00560050  RH  098%=      5-min Rain = 0
KHA1 221420Z 07007KT 06/05 A2998 RMK A01 T00560051  RH  098%=      5-min Rain = 0
KHA1 221425Z 07008KT 06/05 A2998 RMK A01 T00570051  RH  098%=      5-min Rain = 0
KHA1 221430Z 08008KT 06/05 A2998 RMK A01 T00570052  RH  098%=      5-min Rain = 0
KHA1 221435Z 07009KT 06/05 A2998 RMK A01 T00570052  RH  098%=      5-min Rain = 0
KHA1 221440Z 08008KT 06/05 A2998 RMK A01 T00580053  RH  098%=      5-min Rain = 0
KHA1 221445Z 07009KT 06/05 A2998 RMK A01 T00580053  RH  098%=      5-min Rain = 0
KHA1 221450Z 08007KT 06/05 A2999 RMK A01 T00590053  RH  098%=      5-min Rain = 0
KHA1 221455Z 08008KT 06/05 A2999 RMK A01 T00590053  RH  098%=      5-min Rain = 0
KHA1 221500Z 08006KT 06/05 A2999 RMK A01 T00590054  RH  098%=      5-min Rain = 0
KHA1 221505Z 08006KT 06/06 A2999 RMK A01 T00610055  RH  099%=      5-min Rain = 0
KHA1 221510Z 07007KT 06/06 A2999 RMK A01 T00610055  RH  099%=      5-min Rain = 0
KHA1 221515Z 08007KT 06/06 A2999 RMK A01 T00610056  RH  099%=      5-min Rain = 0
KHA1 221520Z 08008KT 06/06 A2999 RMK A01 T00610056  RH  099%=      5-min Rain = 0
KHA1 221525Z 08008KT 06/06 A2999 RMK A01 T00620056  RH  099%=      5-min Rain = 0
KHA1 221530Z 08007KT 06/06 A2999 RMK A01 T00630058  RH  098%=      5-min Rain = 0
KHA1 221535Z 08008KT 06/06 A2999 RMK A01 T00630057  RH  098%=      5-min Rain = 0
KHA1 221540Z 09006KT 06/06 A30 RMK A01 T00630057  RH  098%=      5-min Rain = 0
KHA1 221545Z 09006KT 06/06 A30 RMK A01 T00630058  RH  098%=      5-min Rain = 0
KHA1 221550Z 08006KT 07/06 A2999 RMK A01 T00650059  RH  098%=      5-min Rain = 0
KHA1 221555Z 08007KT 06/06 A2999 RMK A01 T00640059  RH  098%=      5-min Rain = 0
KHA1 221600Z 08004KT 07/06 A2999 RMK A01 T00660060  RH  098%=      5-min Rain = 0
KHA1 221605Z 07005KT 07/06 A2999 RMK A01 T00660060  RH  098%=      5-min Rain = 0
KHA1 221610Z 06007KT 06/06 A2999 RMK A01 T00640058  RH  098%=      5-min Rain = 0
KHA1 221615Z 07005KT 07/06 A2999 RMK A01 T00650059  RH  098%=      5-min Rain = 0
KHA1 221620Z 06006KT 07/06 A2998 RMK A01 T00660060  RH  098%=      5-min Rain = 0
KHA1 221625Z 04007KT 07/06 A2997 RMK A01 T00680061  RH  098%=      5-min Rain = 0
KHA1 221630Z 04008KT 07/06 A2997 RMK A01 T00700062  RH  097%=      5-min Rain = 0
KHA1 221635Z 05007KT 07/06 A2997 RMK A01 T00700060  RH  096%=      5-min Rain = 0
KHA1 221640Z 05007KT 07/06 A2997 RMK A01 T00710061  RH  096%=      5-min Rain = 0
KHA1 221645Z 04008KT 07/06 A2997 RMK A01 T00710059  RH  095%=      5-min Rain = 0
KHA1 221650Z 06007KT 07/06 A2997 RMK A01 T00720061  RH  095%=      5-min Rain = 0
KHA1 221655Z 07007KT 07/06 A2997 RMK A01 T00730061  RH  094%=      5-min Rain = 0
KHA1 221700Z 07007KT 07/06 A2997 RMK A01 T00740061  RH  094%=      5-min Rain = 0
KHA1 221705Z 08008KT 07/06 A2997 RMK A01 T00740060  RH  093%=      5-min Rain = 0
KHA1 221710Z 08009KT 07/06 A2997 RMK A01 T00740060  RH  093%=      5-min Rain = 0
KHA1 221715Z 08007KT 07/06 A2997 RMK A01 T00740060  RH  093%=      5-min Rain = 0
KHA1 221720Z 09007KT 08/06 A2997 RMK A01 T00750061  RH  093%=      5-min Rain = 0
KHA1 221725Z 08006KT 08/06 A2997 RMK A01 T00760062  RH  093%=      5-min Rain = 0
KHA1 221730Z 09007KT 08/06 A2996 RMK A01 T00760062  RH  093%=      5-min Rain = 0
KHA1 221735Z 09006KT 08/06 A2996 RMK A01 T00760062  RH  093%=      5-min Rain = 0
KHA1 221740Z 09006KT 08/06 A2995 RMK A01 T00780064  RH  093%=      5-min Rain = 0
KHA1 221745Z 08006KT 08/07 A2996 RMK A01 T00800065  RH  093%=      5-min Rain = 0
KHA1 221750Z 08007KT 08/06 A2996 RMK A01 T00790064  RH  092%=      5-min Rain = 0
KHA1 221755Z 09006KT 08/06 A2996 RMK A01 T00790063  RH  092%=      5-min Rain = 0
KHA1 221800Z 08008KT 08/06 A2996 RMK A01 T00780063  RH  092%=      5-min Rain = 0
KHA1 221805Z 08007KT 08/06 A2996 RMK A01 T00780064  RH  093%=      5-min Rain = 0
KHA1 221810Z 09006KT 08/06 A2995 RMK A01 T00790064  RH  093%=      5-min Rain = 0
KHA1 221815Z 07008KT 08/06 A2995 RMK A01 T00790064  RH  093%=      5-min Rain = 0
KHA1 221820Z 10006KT 08/07 A2995 RMK A01 T00790065  RH  093%=      5-min Rain = 0
KHA1 221825Z 08007KT 08/06 A2995 RMK A01 T00790064  RH  093%=      5-min Rain = 0
KHA1 221830Z 08007KT 08/06 A2995 RMK A01 T00790064  RH  093%=      5-min Rain = 0
KHA1 221835Z 10007KT 08/07 A2994 RMK A01 T00800066  RH  093%=      5-min Rain = 0
KHA1 221840Z 08006KT 08/07 A2994 RMK A01 T00800066  RH  093%=      5-min Rain = 0
KHA1 221845Z 09006KT 08/07 A2994 RMK A01 T00800067  RH  094%=      5-min Rain = 0
KHA1 221850Z 08006KT 08/07 A2993 RMK A01 T00790066  RH  094%=      5-min Rain = 0
KHA1 221855Z 09006KT 08/07 A2993 RMK A01 T00790067  RH  094%=      5-min Rain = 0
KHA1 221900Z 11007KT 08/07 A2993 RMK A01 T00800068  RH  095%=      5-min Rain = 0
KHA1 221905Z 11006KT 08/07 A2993 RMK A01 T00800068  RH  094%=      5-min Rain = 0
KHA1 221910Z 11007KT 08/07 A2992 RMK A01 T00800068  RH  095%=      5-min Rain = 0
KHA1 221915Z 11007KT 08/07 A2992 RMK A01 T00800068  RH  095%=      5-min Rain = 0
KHA1 221920Z 11008KT 08/07 A2992 RMK A01 T00790068  RH  095%=      5-min Rain = 0
KHA1 221925Z 11007KT 08/07 A2992 RMK A01 T00790068  RH  095%=      5-min Rain = 0
KHA1 221930Z 11008KT 08/07 A2992 RMK A01 T00790067  RH  094%=      5-min Rain = 0
KHA1 221935Z 11006KT 08/07 A2991 RMK A01 T00810069  RH  094%=      5-min Rain = 0
KHA1 221940Z 12006KT 08/07 A2991 RMK A01 T00830069  RH  093%=      5-min Rain = 0
KHA1 221945Z 11008KT 08/07 A2991 RMK A01 T00820067  RH  093%=      5-min Rain = 0
KHA1 221950Z 11006KT 08/07 A2991 RMK A01 T00820068  RH  093%=      5-min Rain = 0
KHA1 221955Z 10006KT 08/07 A2991 RMK A01 T00820068  RH  093%=      5-min Rain = 0
KHA1 222000Z 11007KT 08/07 A2991 RMK A01 T00820068  RH  093%=      5-min Rain = 0
KHA1 222005Z 09005KT 08/07 A299 RMK A01 T00830069  RH  093%=      5-min Rain = 0
KHA1 222010Z 09006KT 08/07 A2989 RMK A01 T00830069  RH  093%=      5-min Rain = 0
KHA1 222015Z 09005KT 08/07 A2989 RMK A01 T00840070  RH  093%=      5-min Rain = 0
KHA1 222020Z 09006KT 08/07 A2989 RMK A01 T00830069  RH  093%=      5-min Rain = 0
KHA1 222025Z 09005KT 08/07 A2989 RMK A01 T00830070  RH  094%=      5-min Rain = 0
KHA1 222030Z 08006KT 08/07 A2989 RMK A01 T00820069  RH  094%=      5-min Rain = 0
KHA1 222035Z 09004KT 08/07 A2989 RMK A01 T00830071  RH  094%=      5-min Rain = 0
KHA1 222040Z 10005KT 08/07 A2989 RMK A01 T00830071  RH  094%=      5-min Rain = 0
KHA1 222045Z 10004KT 08/07 A2989 RMK A01 T00830070  RH  094%=      5-min Rain = 0
KHA1 222050Z 10004KT 08/07 A2989 RMK A01 T00820070  RH  094%=      5-min Rain = 0
KHA1 222055Z 09005KT 08/07 A2988 RMK A01 T00820070  RH  094%=      5-min Rain = 0
KHA1 222100Z 09005KT 08/07 A2988 RMK A01 T00830071  RH  095%=      5-min Rain = 0
KHA1 222105Z 09005KT 08/07 A2988 RMK A01 T00840072  RH  095%=      5-min Rain = 0
KHA1 222110Z 10005KT 08/07 A2988 RMK A01 T00830071  RH  095%=      5-min Rain = 0
KHA1 222115Z 09005KT 08/07 A2988 RMK A01 T00830072  RH  095%=      5-min Rain = 0
KHA1 222120Z 09005KT 08/07 A2988 RMK A01 T00830072  RH  095%=      5-min Rain = 0
KHA1 222125Z 11004KT 08/07 A2988 RMK A01 T00820072  RH  096%=      5-min Rain = 0
KHA1 222130Z 11004KT 08/07 A2988 RMK A01 T00830072  RH  096%=      5-min Rain = 0
KHA1 222135Z 08004KT 08/07 A2988 RMK A01 T00830072  RH  096%=      5-min Rain = 0
KHA1 222140Z 07005KT 08/07 A2988 RMK A01 T00830073  RH  096%=      5-min Rain = 0
KHA1 222145Z 06005KT 08/07 A2988 RMK A01 T00820072  RH  096%=      5-min Rain = 0
KHA1 222150Z 07005KT 08/07 A2987 RMK A01 T00830073  RH  096%=      5-min Rain = 0
KHA1 222155Z 07005KT 08/07 A2987 RMK A01 T00840073  RH  096%=      5-min Rain = 0
KHA1 222200Z 07006KT 08/07 A2987 RMK A01 T00840074  RH  096%=      5-min Rain = 0
KHA1 222205Z 07006KT 09/08 A2987 RMK A01 T00850075  RH  096%=      5-min Rain = 0
KHA1 222210Z 07005KT 09/08 A2987 RMK A01 T00850075  RH  096%=      5-min Rain = 0
KHA1 222215Z 07005KT 08/07 A2987 RMK A01 T00840074  RH  096%=      5-min Rain = 0
KHA1 222220Z 08005KT 08/07 A2987 RMK A01 T00840074  RH  096%=      5-min Rain = 0
KHA1 222225Z 09004KT 09/08 A2987 RMK A01 T00850075  RH  096%=      5-min Rain = 0
KHA1 222230Z 07004KT 09/08 A2987 RMK A01 T00850075  RH  096%=      5-min Rain = 0
KHA1 222235Z 08004KT 08/07 A2987 RMK A01 T00840074  RH  096%=      5-min Rain = 0
KHA1 222240Z 08005KT 08/07 A2987 RMK A01 T00840074  RH  096%=      5-min Rain = 0
KHA1 222245Z 09005KT 08/07 A2987 RMK A01 T00840074  RH  096%=      5-min Rain = 0
KHA1 222250Z 08005KT 08/07 A2986 RMK A01 T00840074  RH  096%=      5-min Rain = 0
KHA1 222255Z 08005KT 09/08 A2986 RMK A01 T00850075  RH  096%=      5-min Rain = 0
KHA1 222300Z 08005KT 09/08 A2986 RMK A01 T00850075  RH  096%=      5-min Rain = 0
KHA1 222305Z 08006KT 09/08 A2986 RMK A01 T00850075  RH  096%=      5-min Rain = 0
KHA1 222310Z 08005KT 09/08 A2986 RMK A01 T00850075  RH  096%=      5-min Rain = 0
KHA1 222315Z 08006KT 09/08 A2985 RMK A01 T00850075  RH  096%=      5-min Rain = 0
KHA1 222320Z 08006KT 09/08 A2985 RMK A01 T00850075  RH  096%=      5-min Rain = 0
KHA1 222325Z 09006KT 09/08 A2985 RMK A01 T00850075  RH  096%=      5-min Rain = 0
KHA1 222330Z 10006KT 09/08 A2986 RMK A01 T00850075  RH  096%=      5-min Rain = 0
KHA1 222335Z 09006KT 09/08 A2985 RMK A01 T00850075  RH  096%=      5-min Rain = 0
KHA1 222340Z 09006KT 08/07 A2985 RMK A01 T00840074  RH  096%=      5-min Rain = 0
KHA1 222345Z 09006KT 08/07 A2985 RMK A01 T00840074  RH  096%=      5-min Rain = 0
KHA1 222350Z 09006KT 08/07 A2985 RMK A01 T00830074  RH  096%=      5-min Rain = 0
KHA1 222355Z 08005KT 08/07 A2985 RMK A01 T00830074  RH  097%=      5-min Rain = 0
KHA1 230000Z 09005KT 08/07 A2985 RMK A01 T00830074  RH  097%=      5-min Rain = 0
KHA1 230005Z 09005KT 08/07 A2985 RMK A01 T00830074  RH  097%=      5-min Rain = 0
KHA1 230010Z 09006KT 08/07 A2985 RMK A01 T00820074  RH  097%=      5-min Rain = 0
KHA1 230015Z 09006KT 08/07 A2985 RMK A01 T00820073  RH  097%=      5-min Rain = 0
KHA1 230020Z 08006KT 08/07 A2984 RMK A01 T00820074  RH  097%=      5-min Rain = 0
KHA1 230025Z 08007KT 08/07 A2984 RMK A01 T00820073  RH  097%=      5-min Rain = 0
KHA1 230030Z 08006KT 08/07 A2984 RMK A01 T00810073  RH  097%=      5-min Rain = 0
KHA1 230035Z 08007KT 08/07 A2984 RMK A01 T00810073  RH  097%=      5-min Rain = 0
KHA1 230040Z 09007KT 08/07 A2984 RMK A01 T00800072  RH  097%=      5-min Rain = 0
KHA1 230045Z 10007KT 08/07 A2984 RMK A01 T00800072  RH  097%=      5-min Rain = 0
KHA1 230050Z 10007G12KT 08/07 A2984 RMK A01 T00790072  RH  097%=      5-min Rain = 0
KHA1 230055Z 09007KT 08/07 A2984 RMK A01 T00790072  RH  097%=      5-min Rain = 0
KHA1 230100Z 09006KT 08/07 A2985 RMK A01 T00790072  RH  098%=      5-min Rain = 0
KHA1 230105Z 09006KT 08/07 A2985 RMK A01 T00790072  RH  098%=      5-min Rain = 0
KHA1 230110Z 09006KT 08/07 A2985 RMK A01 T00790072  RH  098%=      5-min Rain = 0
KHA1 230115Z 09007KT 08/07 A2985 RMK A01 T00790072  RH  098%=      5-min Rain = 0
KHA1 230120Z 09006KT 08/07 A2984 RMK A01 T00790072  RH  098%=      5-min Rain = 0
KHA1 230125Z 10007KT 08/07 A2985 RMK A01 T00790072  RH  098%=      5-min Rain = 0
KHA1 230130Z 09007KT 08/07 A2985 RMK A01 T00790072  RH  098%=      5-min Rain = 0
KHA1 230135Z 10007KT 08/07 A2985 RMK A01 T00790072  RH  098%=      5-min Rain = 0
KHA1 230140Z 10006KT 08/07 A2985 RMK A01 T00790073  RH  098%=      5-min Rain = 0
KHA1 230145Z 10007KT 08/07 A2985 RMK A01 T00790073  RH  098%=      5-min Rain = 0
KHA1 230150Z 10006KT 08/07 A2985 RMK A01 T00790073  RH  098%=      5-min Rain = 0
KHA1 230155Z 09006KT 08/07 A2985 RMK A01 T00790073  RH  098%=      5-min Rain = 0
KHA1 230200Z 10007KT 08/07 A2985 RMK A01 T00790073  RH  098%=      5-min Rain = 0
KHA1 230205Z 10007KT 08/07 A2985 RMK A01 T00790073  RH  098%=      5-min Rain = 0
KHA1 230210Z 10007KT 08/07 A2984 RMK A01 T00790073  RH  098%=      5-min Rain = 0
KHA1 230215Z 10006KT 08/07 A2984 RMK A01 T00790073  RH  099%=      5-min Rain = 0
KHA1 230220Z 10007KT 08/07 A2984 RMK A01 T00790073  RH  099%=      5-min Rain = 0
KHA1 230225Z 09006KT 08/07 A2985 RMK A01 T00790073  RH  099%=      5-min Rain = 0
KHA1 230230Z 09005KT 08/07 A2985 RMK A01 T00790074  RH  099%=      5-min Rain = 0
KHA1 230235Z 08005KT 08/07 A2985 RMK A01 T00790074  RH  099%=      5-min Rain = 0
KHA1 230240Z 08005KT 08/07 A2986 RMK A01 T00800074  RH  099%=      5-min Rain = 0
KHA1 230245Z 08004KT 08/07 A2986 RMK A01 T00800074  RH  099%=      5-min Rain = 0
KHA1 230250Z 08005KT 08/07 A2986 RMK A01 T00800074  RH  099%=      5-min Rain = 0
KHA1 230255Z 07006KT 08/07 A2986 RMK A01 T00800074  RH  099%=      5-min Rain = 0
KHA1 230300Z 07006KT 08/07 A2984 RMK A01 T00800074  RH  099%=      5-min Rain = 0
KHA1 230305Z 07008KT 08/07 A2983 RMK A01 T00800074  RH  099%=      5-min Rain = 0
KHA1 230310Z 08006KT 08/08 A2983 RMK A01 T00800075  RH  099%=      5-min Rain = 0
KHA1 230315Z 08007KT 08/08 A2983 RMK A01 T00800075  RH  099%=      5-min Rain = 0
KHA1 230320Z 08008KT 08/08 A2983 RMK A01 T00800075  RH  099%=      5-min Rain = 0
KHA1 230325Z 08007KT 08/08 A2982 RMK A01 T00810075  RH  099%=      5-min Rain = 0
KHA1 230330Z 09007KT 08/08 A2982 RMK A01 T00810075  RH  099%=      5-min Rain = 0
KHA1 230335Z 10008G13KT 08/08 A2982 RMK A01 T00810075  RH  099%=      5-min Rain = 0
KHA1 230340Z 10009KT 08/08 A2982 RMK A01 T00810075  RH  099%=      5-min Rain = 0
KHA1 230345Z 10008KT 08/08 A2982 RMK A01 T00810075  RH  099%=      5-min Rain = 0
KHA1 230350Z 11010KT 08/08 A2982 RMK A01 T00800075  RH  099%=      5-min Rain = 0
KHA1 230355Z 11010G15KT 08/07 A2982 RMK A01 T00790074  RH  099%=      5-min Rain = 0
KHA1 230400Z 12008KT 08/07 A2982 RMK A01 T00800074  RH  099%=      5-min Rain = 0
KHA1 230405Z 12009KT 08/08 A2981 RMK A01 T00800075  RH  099%=      5-min Rain = 0
KHA1 230410Z 12009KT 08/08 A2981 RMK A01 T00810076  RH  099%=      5-min Rain = 0
KHA1 230415Z 12010KT 08/08 A298 RMK A01 T00810076  RH  099%=      5-min Rain = 0
KHA1 230420Z 11008KT 08/08 A298 RMK A01 T00810076  RH  099%=      5-min Rain = 0
KHA1 230425Z 11009KT 08/08 A298 RMK A01 T00820077  RH  099%=      5-min Rain = 0
KHA1 230430Z 11009KT 08/08 A298 RMK A01 T00820077  RH  099%=      5-min Rain = 0
KHA1 230435Z 10009KT 08/08 A298 RMK A01 T00820077  RH  099%=      5-min Rain = 0
KHA1 230440Z 10009G14KT 08/08 A2979 RMK A01 T00820077  RH  099%=      5-min Rain = 0
KHA1 230445Z 09008KT 08/08 A2978 RMK A01 T00830078  RH  099%=      5-min Rain = 0
KHA1 230450Z 09008G13KT 08/08 A2978 RMK A01 T00830078  RH  099%=      5-min Rain = 0
KHA1 230455Z 10009G14KT 08/08 A2977 RMK A01 T00830078  RH  099%=      5-min Rain = 0
KHA1 230500Z 10009KT 08/08 A2977 RMK A01 T00830078  RH  099%=      5-min Rain = 0
KHA1 230505Z 10008KT 08/08 A2977 RMK A01 T00830078  RH  099%=      5-min Rain = 0
KHA1 230510Z 10008G13KT 08/08 A2976 RMK A01 T00830078  RH  099%=      5-min Rain = 0
KHA1 230515Z 11009KT 08/08 A2976 RMK A01 T00830079  RH  099%=      5-min Rain = 0
KHA1 230520Z 10007KT 08/08 A2976 RMK A01 T00830079  RH  099%=      5-min Rain = 0
KHA1 230525Z 10008KT 08/08 A2976 RMK A01 T00830079  RH  099%=      5-min Rain = 0
KHA1 230530Z 10009G14KT 08/08 A2976 RMK A01 T00830079  RH  099%=      5-min Rain = 0
KHA1 230535Z 10008KT 08/08 A2976 RMK A01 T00830079  RH  099%=      5-min Rain = 0
KHA1 230540Z 10008G13KT 08/08 A2975 RMK A01 T00840079  RH  099%=      5-min Rain = 0
KHA1 230545Z 11009G14KT 08/08 A2975 RMK A01 T00840079  RH  099%=      5-min Rain = 0
KHA1 230550Z 11008G13KT 08/08 A2975 RMK A01 T00840079  RH  099%=      5-min Rain = 0
KHA1 230555Z 11009G14KT 08/08 A2975 RMK A01 T00840079  RH  099%=      5-min Rain = 0

Page generated in 0.0292 seconds.